Time;durP1;ratioP1;P1;durP2;ratioP2;P2;SDS_P1;SDS_P2;PMS_P1;PMS_P2;Temp;Humidity;BMP_temperature;BMP_pressure;BME280_temperature;BME280_humidity;BME280_pressure;Samples;Min_cycle;Max_cycle;Signal;HPM_P1;HPM_P2
2023/12/05 00:02:06;;;;;;;34.00;23.27;;;-3.20;99.90;;;;;;5063962;28;20535;-54
2023/12/05 00:04:32;;;;;;;36.77;24.93;;;-3.20;99.90;;;;;;5065445;28;20489;-53
2023/12/05 00:06:59;;;;;;;31.27;23.50;;;-3.20;99.90;;;;;;5060596;28;20880;-54
2023/12/05 00:09:26;;;;;;;34.00;23.07;;;-3.20;99.90;;;;;;5052020;28;20510;-54
2023/12/05 00:11:52;;;;;;;37.87;24.97;;;-3.20;99.90;;;;;;5051686;28;20967;-54
2023/12/05 00:14:19;;;;;;;39.40;26.30;;;-3.20;99.90;;;;;;5058923;28;20466;-53
2023/12/05 00:16:46;;;;;;;39.20;25.30;;;-3.20;99.90;;;;;;5056923;28;20448;-53
2023/12/05 00:19:13;;;;;;;35.13;25.30;;;-3.20;99.90;;;;;;5058371;28;20460;-54
2023/12/05 00:21:40;;;;;;;36.40;24.03;;;-3.20;99.90;;;;;;5061876;28;21000;-54
2023/12/05 00:24:07;;;;;;;35.47;24.10;;;-3.20;99.90;;;;;;5066347;28;21058;-53
2023/12/05 00:26:34;;;;;;;35.10;24.07;;;-3.20;99.90;;;;;;5059949;28;20530;-54
2023/12/05 00:29:01;;;;;;;31.57;21.83;;;-3.20;99.90;;;;;;5057005;28;20488;-54
2023/12/05 00:31:27;;;;;;;33.00;23.90;;;-3.20;99.90;;;;;;5060204;28;20862;-54
2023/12/05 00:33:54;;;;;;;33.33;23.83;;;-3.10;99.90;;;;;;5056140;28;20515;-55
2023/12/05 00:36:22;;;;;;;33.17;23.90;;;-3.10;99.90;;;;;;5060204;28;20509;-54
2023/12/05 00:38:48;;;;;;;35.87;25.07;;;-3.10;99.90;;;;;;5054808;28;20486;-54
2023/12/05 00:41:15;;;;;;;33.37;24.03;;;-3.10;99.90;;;;;;5061555;28;21104;-54
2023/12/05 00:43:42;;;;;;;35.27;25.43;;;-3.10;99.90;;;;;;5066240;28;20555;-54
2023/12/05 00:46:08;;;;;;;36.77;26.23;;;-3.10;99.90;;;;;;5062920;28;20452;-54
2023/12/05 00:48:35;;;;;;;37.03;24.50;;;-3.00;99.90;;;;;;5063643;28;20441;-53
2023/12/05 00:51:01;;;;;;;32.60;23.43;;;-3.00;99.90;;;;;;5061262;28;20449;-54
2023/12/05 00:53:29;;;;;;;31.23;22.77;;;-3.00;99.90;;;;;;5060370;28;20457;-54
2023/12/05 00:55:56;;;;;;;34.73;24.23;;;-2.90;99.90;;;;;;5061887;28;20461;-53
2023/12/05 00:58:22;;;;;;;35.53;24.23;;;-2.90;99.90;;;;;;5059018;28;20438;-53
2023/12/05 01:00:49;;;;;;;39.13;25.37;;;-2.90;99.90;;;;;;5062879;28;20438;-53
2023/12/05 01:03:16;;;;;;;33.50;23.80;;;-2.90;99.90;;;;;;5058292;28;20496;-55
2023/12/05 01:05:42;;;;;;;34.93;23.93;;;-2.90;99.90;;;;;;5058692;28;20446;-55
2023/12/05 01:08:09;;;;;;;37.50;24.10;;;-2.80;99.90;;;;;;5058068;28;20471;-56
2023/12/05 01:10:37;;;;;;;39.23;24.20;;;-2.90;99.90;;;;;;5057873;28;20487;-54
2023/12/05 01:13:03;;;;;;;33.47;24.10;;;-2.80;99.90;;;;;;5062168;28;20504;-55
2023/12/05 01:15:30;;;;;;;34.07;24.00;;;-2.80;99.90;;;;;;5058574;28;20445;-55
2023/12/05 01:17:56;;;;;;;38.03;25.03;;;-2.80;99.90;;;;;;5061788;28;20469;-55
2023/12/05 01:20:23;;;;;;;29.43;22.80;;;-2.80;99.90;;;;;;5061771;28;20532;-55
2023/12/05 01:22:49;;;;;;;36.90;23.00;;;-2.70;99.90;;;;;;5049414;28;20485;-55
2023/12/05 01:25:16;;;;;;;31.77;23.23;;;-2.70;99.90;;;;;;5054684;28;20450;-55
2023/12/05 01:27:44;;;;;;;32.40;22.43;;;-2.70;99.90;;;;;;5061518;28;20442;-55
2023/12/05 01:30:11;;;;;;;32.70;23.73;;;-2.70;99.90;;;;;;5053837;28;20559;-54
2023/12/05 01:32:38;;;;;;;35.03;25.30;;;-2.70;99.90;;;;;;5052093;28;20444;-55
2023/12/05 01:35:05;;;;;;;30.87;22.73;;;-2.70;99.90;;;;;;5052674;28;20500;-54
2023/12/05 01:37:32;;;;;;;33.30;24.30;;;-2.70;99.90;;;;;;5053280;28;20454;-53
2023/12/05 01:39:58;;;;;;;34.40;23.97;;;-2.80;99.90;;;;;;5055621;28;20518;-54
2023/12/05 01:42:25;;;;;;;31.47;23.70;;;-2.80;99.90;;;;;;5060486;28;20475;-54
2023/12/05 01:44:53;;;;;;;35.00;25.00;;;-2.70;99.90;;;;;;5060466;28;20453;-54
2023/12/05 01:47:19;;;;;;;37.07;25.17;;;-2.70;99.90;;;;;;5067209;28;20437;-54
2023/12/05 01:49:47;;;;;;;33.80;23.57;;;-2.70;99.90;;;;;;5058455;28;20434;-54
2023/12/05 01:52:14;;;;;;;32.20;23.90;;;-2.70;99.90;;;;;;5058586;28;20494;-53
2023/12/05 01:54:40;;;;;;;35.33;24.40;;;-2.60;99.90;;;;;;5056073;28;20477;-53
2023/12/05 01:57:07;;;;;;;35.73;24.10;;;-2.60;99.90;;;;;;5053606;28;20970;-54
2023/12/05 01:59:34;;;;;;;37.20;25.10;;;-2.70;99.90;;;;;;5052752;28;20543;-55
2023/12/05 02:02:02;;;;;;;32.63;22.73;;;-2.70;99.90;;;;;;5059306;28;20797;-53
2023/12/05 02:04:30;;;;;;;32.70;22.60;;;-2.60;99.90;;;;;;5057638;28;20485;-54
2023/12/05 02:06:57;;;;;;;33.70;24.43;;;-2.60;99.90;;;;;;5060577;28;20548;-54
2023/12/05 02:09:24;;;;;;;34.43;24.63;;;-2.60;99.90;;;;;;5056547;28;20446;-54
2023/12/05 02:11:50;;;;;;;31.87;22.63;;;-2.60;99.90;;;;;;5053006;28;20442;-55
2023/12/05 02:14:19;;;;;;;37.93;25.80;;;-2.60;99.90;;;;;;5052853;28;20557;-55
2023/12/05 02:17:41;;;;;;;32.10;23.20;;;-2.60;99.90;;;;;;5053333;28;20470;-54
2023/12/05 02:20:20;;;;;;;35.70;24.70;;;-2.60;99.90;;;;;;5048692;28;20458;-53
2023/12/05 02:23:08;;;;;;;31.47;23.33;;;-2.60;99.90;;;;;;5052979;28;20466;-54
2023/12/05 02:25:47;;;;;;;32.67;24.73;;;-2.50;99.90;;;;;;5054812;28;20434;-53
2023/12/05 02:28:15;;;;;;;36.53;24.23;;;-2.60;99.90;;;;;;5061574;28;20453;-54
2023/12/05 02:30:42;;;;;;;34.47;25.30;;;-2.50;99.90;;;;;;5063761;28;20477;-54
2023/12/05 02:33:10;;;;;;;38.07;26.37;;;-2.50;99.90;;;;;;5056612;28;20457;-54
2023/12/05 02:35:37;;;;;;;39.47;25.30;;;-2.50;99.90;;;;;;5058834;28;20438;-54
2023/12/05 02:38:18;;;;;;;38.93;26.70;;;-2.50;99.90;;;;;;5052188;28;21041;-53
2023/12/05 02:40:54;;;;;;;32.70;24.00;;;-2.60;99.90;;;;;;5060781;28;20489;-54
2023/12/05 02:43:28;;;;;;;32.83;22.80;;;-2.60;99.90;;;;;;5051911;28;20542;-54
2023/12/05 02:45:56;;;;;;;37.50;23.00;;;-2.60;99.90;;;;;;5054427;28;20449;-53
2023/12/05 02:48:24;;;;;;;36.60;24.17;;;-2.50;99.90;;;;;;5054786;28;20442;-53
2023/12/05 02:50:53;;;;;;;36.10;25.10;;;-2.50;99.90;;;;;;5055818;28;20449;-53
2023/12/05 02:53:19;;;;;;;40.23;23.37;;;-2.50;99.90;;;;;;5052313;28;20511;-54
2023/12/05 02:55:48;;;;;;;41.10;24.60;;;-2.50;99.90;;;;;;5046329;28;20494;-54
2023/12/05 02:58:14;;;;;;;36.23;23.90;;;-2.50;99.90;;;;;;5053263;28;20449;-54
2023/12/05 03:00:43;;;;;;;35.17;25.53;;;-2.40;99.90;;;;;;5055900;28;20875;-54
2023/12/05 03:03:09;;;;;;;35.87;25.27;;;-2.50;99.90;;;;;;5052733;28;20513;-55
2023/12/05 03:05:36;;;;;;;37.07;24.70;;;-2.50;99.90;;;;;;5055120;28;20449;-54
2023/12/05 03:08:02;;;;;;;34.50;24.60;;;-2.40;99.90;;;;;;5060829;28;20514;-54
2023/12/05 03:10:29;;;;;;;36.33;25.10;;;-2.40;99.90;;;;;;5058029;28;20463;-54
2023/12/05 03:12:55;;;;;;;35.63;25.00;;;-2.40;99.90;;;;;;5059423;28;20478;-55
2023/12/05 03:15:22;;;;;;;36.37;24.10;;;-2.40;99.90;;;;;;5054857;28;20873;-54
2023/12/05 03:17:50;;;;;;;34.90;24.37;;;-2.40;99.90;;;;;;5050008;28;20464;-54
2023/12/05 03:20:17;;;;;;;31.23;23.77;;;-2.40;99.90;;;;;;5052774;28;20446;-58
2023/12/05 03:22:43;;;;;;;37.37;25.47;;;-2.40;99.90;;;;;;5050942;28;20442;-53
2023/12/05 03:25:10;;;;;;;33.30;23.03;;;-2.40;99.90;;;;;;5052936;28;21121;-54
2023/12/05 03:27:37;;;;;;;36.60;24.40;;;-2.40;99.90;;;;;;5062336;28;21000;-53
2023/12/05 03:30:04;;;;;;;38.20;25.17;;;-2.30;99.90;;;;;;5052480;28;20467;-54
2023/12/05 03:32:30;;;;;;;41.20;28.30;;;-2.30;99.90;;;;;;5050315;28;20951;-54
2023/12/05 03:34:58;;;;;;;38.20;26.30;;;-2.30;99.90;;;;;;5055972;28;20449;-53
2023/12/05 03:37:25;;;;;;;32.00;24.47;;;-2.40;99.90;;;;;;5052364;28;20607;-55
2023/12/05 03:39:51;;;;;;;35.47;24.97;;;-2.30;99.90;;;;;;5052113;28;20465;-53
2023/12/05 03:42:18;;;;;;;36.83;24.57;;;-2.30;99.90;;;;;;5057281;28;21027;-54
2023/12/05 03:44:45;;;;;;;40.27;26.00;;;-2.30;99.90;;;;;;5050176;28;20527;-53
2023/12/05 03:47:11;;;;;;;33.90;24.87;;;-2.40;99.90;;;;;;5047603;28;20450;-53
2023/12/05 03:49:38;;;;;;;36.73;24.67;;;-2.30;99.90;;;;;;5052557;28;20456;-53
2023/12/05 03:52:06;;;;;;;34.20;24.63;;;-2.30;99.90;;;;;;5047656;28;20458;-53
2023/12/05 03:54:33;;;;;;;36.77;24.60;;;-2.30;99.90;;;;;;5052703;28;20509;-53
2023/12/05 03:56:59;;;;;;;33.20;23.53;;;-2.30;99.90;;;;;;5053706;28;20503;-53
2023/12/05 03:59:26;;;;;;;37.40;24.53;;;-2.30;99.90;;;;;;5049451;28;20884;-54
2023/12/05 04:01:52;;;;;;;37.23;25.43;;;-2.20;99.90;;;;;;5053674;28;20488;-54
2023/12/05 04:04:19;;;;;;;36.60;24.80;;;-2.30;99.90;;;;;;5056792;28;20531;-53
2023/12/05 04:06:46;;;;;;;31.83;23.70;;;-2.20;99.90;;;;;;5053959;28;20527;-54
2023/12/05 04:09:14;;;;;;;37.20;24.90;;;-2.20;99.90;;;;;;5049994;28;20464;-55
2023/12/05 04:11:42;;;;;;;34.20;24.63;;;-2.20;99.90;;;;;;5054552;28;20488;-54
2023/12/05 04:14:09;;;;;;;36.70;24.60;;;-2.20;99.90;;;;;;5048299;28;20532;-54
2023/12/05 04:16:36;;;;;;;35.20;26.23;;;-2.20;99.90;;;;;;5055852;28;20542;-53
2023/12/05 04:19:02;;;;;;;32.30;24.67;;;-2.20;99.90;;;;;;5058808;28;20460;-54
2023/12/05 04:21:29;;;;;;;35.87;24.93;;;-2.20;99.90;;;;;;5059710;28;20795;-53
2023/12/05 04:23:56;;;;;;;33.10;23.73;;;-2.20;99.90;;;;;;5053525;28;20482;-54
2023/12/05 04:26:23;;;;;;;37.33;24.70;;;-2.10;99.90;;;;;;5051448;28;20462;-54
2023/12/05 04:28:50;;;;;;;34.43;25.43;;;-2.10;99.90;;;;;;5058297;28;20453;-53
2023/12/05 04:31:17;;;;;;;36.13;25.57;;;-2.10;99.90;;;;;;5055511;28;20470;-54
2023/12/05 04:33:43;;;;;;;34.83;23.97;;;-2.10;99.90;;;;;;5052186;28;20531;-54
2023/12/05 04:36:11;;;;;;;31.73;23.90;;;-2.10;99.90;;;;;;5054132;28;20450;-55
2023/12/05 04:38:39;;;;;;;33.57;22.87;;;-2.00;99.90;;;;;;5056800;28;20976;-54
2023/12/05 04:41:06;;;;;;;36.23;24.67;;;-2.00;99.90;;;;;;5049374;28;20457;-54
2023/12/05 04:43:34;;;;;;;36.50;24.80;;;-2.10;99.90;;;;;;5048746;28;20527;-53
2023/12/05 04:46:00;;;;;;;35.23;24.60;;;-2.10;99.90;;;;;;5058019;28;20487;-54
2023/12/05 04:48:27;;;;;;;32.47;23.97;;;-2.00;99.90;;;;;;5054754;28;20453;-54
2023/12/05 04:50:54;;;;;;;36.30;26.43;;;-2.00;99.90;;;;;;5059305;28;20442;-54
2023/12/05 04:53:20;;;;;;;34.33;24.47;;;-2.00;99.90;;;;;;5060179;28;20461;-54
2023/12/05 04:55:47;;;;;;;36.83;24.20;;;-2.10;99.90;;;;;;5053950;28;20777;-54
2023/12/05 04:58:13;;;;;;;33.40;24.00;;;-2.00;99.90;;;;;;5052277;28;20907;-54
2023/12/05 05:00:42;;;;;;;37.07;26.17;;;-2.10;99.90;;;;;;5051489;28;20857;-53
2023/12/05 05:03:09;;;;;;;34.83;23.87;;;-2.00;99.90;;;;;;5057130;28;20489;-53
2023/12/05 05:05:35;;;;;;;33.40;24.13;;;-2.00;99.90;;;;;;5059555;28;20484;-53
2023/12/05 05:08:02;;;;;;;35.10;24.97;;;-2.00;99.90;;;;;;5056300;28;20434;-53
2023/12/05 05:10:28;;;;;;;34.40;24.07;;;-2.00;99.90;;;;;;5062692;28;20442;-53
2023/12/05 05:12:55;;;;;;;39.93;26.73;;;-2.00;99.90;;;;;;5053769;28;20457;-54
2023/12/05 05:15:21;;;;;;;33.17;22.87;;;-2.00;99.90;;;;;;5052658;28;20437;-54
2023/12/05 05:17:49;;;;;;;37.03;26.07;;;-2.00;99.90;;;;;;5048688;28;20467;-54
2023/12/05 05:20:16;;;;;;;33.47;24.77;;;-1.90;99.90;;;;;;5059282;28;20516;-54
2023/12/05 05:22:43;;;;;;;37.63;25.20;;;-2.00;99.90;;;;;;5053821;28;20466;-53
2023/12/05 05:25:09;;;;;;;35.20;25.50;;;-2.00;99.90;;;;;;5061908;28;21570;-54
2023/12/05 05:27:36;;;;;;;34.67;24.87;;;-1.90;99.90;;;;;;5057445;28;20450;-55
2023/12/05 05:30:03;;;;;;;38.00;25.30;;;-1.90;99.90;;;;;;5058524;28;20441;-55
2023/12/05 05:32:30;;;;;;;37.07;24.77;;;-1.90;99.90;;;;;;5052884;28;20821;-53
2023/12/05 05:34:58;;;;;;;35.30;25.10;;;-2.00;99.90;;;;;;5055278;28;20575;-55
2023/12/05 05:37:24;;;;;;;33.03;24.23;;;-1.90;99.90;;;;;;5049308;28;20954;-54
2023/12/05 05:39:51;;;;;;;33.47;24.60;;;-2.00;99.90;;;;;;5051152;28;20462;-54
2023/12/05 05:42:18;;;;;;;35.47;23.47;;;-2.00;99.90;;;;;;5052518;28;20461;-54
2023/12/05 05:44:44;;;;;;;33.43;24.30;;;-1.90;99.90;;;;;;5057539;28;20489;-54
2023/12/05 05:47:11;;;;;;;33.47;24.70;;;-1.90;99.90;;;;;;5056277;28;20465;-53
2023/12/05 05:49:38;;;;;;;36.03;24.73;;;-1.90;99.90;;;;;;5063011;28;20461;-54
2023/12/05 05:52:07;;;;;;;33.87;25.00;;;-1.90;99.90;;;;;;5059701;28;20465;-54
2023/12/05 05:54:33;;;;;;;36.40;25.67;;;-1.90;99.90;;;;;;5061126;28;20556;-53
2023/12/05 05:57:00;;;;;;;38.07;26.80;;;-1.90;99.90;;;;;;5055949;28;20530;-53
2023/12/05 05:59:26;;;;;;;36.37;24.53;;;-1.90;99.90;;;;;;5053497;28;20454;-53
2023/12/05 06:01:53;;;;;;;36.07;23.87;;;-1.90;99.90;;;;;;5057559;28;20877;-54
2023/12/05 06:04:20;;;;;;;38.40;24.93;;;-1.90;99.90;;;;;;5055862;28;20492;-54
2023/12/05 06:06:46;;;;;;;33.50;24.50;;;-1.90;99.90;;;;;;5050671;28;20461;-54
2023/12/05 06:09:14;;;;;;;35.37;25.40;;;-1.90;99.90;;;;;;5061720;28;20852;-54
2023/12/05 06:11:41;;;;;;;36.07;24.40;;;-1.90;99.90;;;;;;5054091;28;20493;-55
2023/12/05 06:14:08;;;;;;;34.67;26.17;;;-1.90;99.90;;;;;;5055801;28;20488;-55
2023/12/05 06:16:34;;;;;;;38.60;25.83;;;-1.80;99.90;;;;;;5049179;28;20466;-55
2023/12/05 06:19:01;;;;;;;39.33;25.20;;;-1.80;99.90;;;;;;5051151;28;20450;-53
2023/12/05 06:21:27;;;;;;;33.43;24.37;;;-1.80;99.90;;;;;;5056182;28;20487;-53
2023/12/05 06:23:55;;;;;;;35.50;23.30;;;-1.90;99.90;;;;;;5054220;28;20520;-54
2023/12/05 06:26:23;;;;;;;32.90;23.17;;;-1.80;99.90;;;;;;5048708;28;20457;-53
2023/12/05 06:28:49;;;;;;;38.00;25.47;;;-1.80;99.90;;;;;;5056678;28;20803;-54
2023/12/05 06:31:16;;;;;;;37.57;26.10;;;-1.80;99.90;;;;;;5058388;28;20461;-54
2023/12/05 06:33:44;;;;;;;32.17;22.80;;;-1.80;99.90;;;;;;5061865;28;20569;-54
2023/12/05 06:36:12;;;;;;;34.10;23.03;;;-1.80;99.90;;;;;;5063614;28;20452;-54
2023/12/05 06:38:38;;;;;;;33.07;23.57;;;-1.80;99.90;;;;;;5054409;28;20450;-55
2023/12/05 06:41:05;;;;;;;34.87;24.67;;;-1.80;99.90;;;;;;5065002;28;20438;-54
2023/12/05 06:43:33;;;;;;;35.80;23.30;;;-1.80;99.90;;;;;;5052422;28;20485;-54
2023/12/05 06:46:00;;;;;;;28.90;22.17;;;-1.80;99.90;;;;;;5058270;28;20576;-54
2023/12/05 06:48:26;;;;;;;33.27;24.07;;;-1.70;99.90;;;;;;5056438;28;20450;-54
2023/12/05 06:50:53;;;;;;;33.37;24.57;;;-1.70;99.90;;;;;;5052554;28;20450;-54
2023/12/05 06:53:20;;;;;;;39.73;27.90;;;-1.70;99.90;;;;;;5056063;28;20477;-53
2023/12/05 06:55:47;;;;;;;40.97;27.83;;;-1.90;99.90;;;;;;5063609;28;20507;-54
2023/12/05 06:58:13;;;;;;;45.30;29.07;;;-1.90;99.90;;;;;;5055097;28;20546;-54
2023/12/05 07:00:41;;;;;;;34.70;22.97;;;-1.90;99.90;;;;;;5051609;28;20955;-54
2023/12/05 07:03:08;;;;;;;35.33;25.50;;;-1.90;99.90;;;;;;5058946;28;20481;-55
2023/12/05 07:05:34;;;;;;;34.27;24.87;;;-1.80;99.90;;;;;;5057446;28;20539;-55
2023/12/05 07:08:01;;;;;;;32.87;23.23;;;-1.80;99.90;;;;;;5061296;28;20445;-55
2023/12/05 07:10:28;;;;;;;32.33;23.40;;;-1.70;99.90;;;;;;5051325;28;20587;-55
2023/12/05 07:12:55;;;;;;;31.53;22.80;;;-1.70;99.90;;;;;;5057172;28;20481;-54
2023/12/05 07:15:21;;;;;;;32.83;24.47;;;-1.70;99.90;;;;;;5053952;28;21031;-54
2023/12/05 07:17:49;;;;;;;32.50;22.30;;;-1.70;99.90;;;;;;5051150;28;20438;-54
2023/12/05 07:20:16;;;;;;;32.73;22.43;;;-1.70;99.90;;;;;;5055963;28;20456;-53
2023/12/05 07:22:43;;;;;;;32.70;23.23;;;-1.70;99.90;;;;;;5056321;28;20454;-54
2023/12/05 07:25:10;;;;;;;32.37;23.40;;;-1.70;99.90;;;;;;5049712;28;20482;-54
2023/12/05 07:27:36;;;;;;;35.30;25.80;;;-1.70;99.90;;;;;;5053607;28;20546;-54
2023/12/05 07:30:04;;;;;;;43.37;27.63;;;-1.60;99.90;;;;;;5057499;28;20539;-54
2023/12/05 07:32:30;;;;;;;47.53;32.20;;;-1.70;99.90;;;;;;5054000;28;20464;-54
2023/12/05 07:34:58;;;;;;;33.57;25.47;;;-1.60;99.90;;;;;;5057301;28;20492;-54
2023/12/05 07:37:25;;;;;;;38.20;25.70;;;-1.60;99.90;;;;;;5054712;28;20544;-55
2023/12/05 07:39:51;;;;;;;35.30;24.53;;;-1.60;99.90;;;;;;5050619;28;20466;-54
2023/12/05 07:42:18;;;;;;;39.30;26.43;;;-1.60;99.90;;;;;;5057655;28;20511;-55
2023/12/05 07:44:44;;;;;;;35.80;25.30;;;-1.70;99.90;;;;;;5054564;28;20936;-55
2023/12/05 07:47:12;;;;;;;42.70;29.30;;;-1.70;99.90;;;;;;5055360;28;20460;-53
2023/12/05 07:49:38;;;;;;;36.17;28.37;;;-1.70;99.90;;;;;;5055973;28;20461;-53
2023/12/05 07:52:06;;;;;;;34.63;24.83;;;-1.60;99.90;;;;;;5047127;28;20900;-54
2023/12/05 07:54:33;;;;;;;35.07;26.17;;;-1.60;99.90;;;;;;5057718;28;20503;-54
2023/12/05 07:56:59;;;;;;;35.27;25.80;;;-1.60;99.90;;;;;;5056630;28;20458;-53
2023/12/05 07:59:26;;;;;;;39.53;27.93;;;-1.60;99.90;;;;;;5057104;28;20457;-55
2023/12/05 08:01:52;;;;;;;36.33;26.47;;;-1.60;99.90;;;;;;5056175;28;20466;-54
2023/12/05 08:04:19;;;;;;;35.43;26.73;;;-1.50;99.90;;;;;;5046968;28;20497;-60
2023/12/05 08:06:45;;;;;;;37.63;25.43;;;-1.50;99.90;;;;;;5053035;28;20461;-54
2023/12/05 08:09:13;;;;;;;38.53;25.83;;;-1.50;99.90;;;;;;5054509;28;20461;-54
2023/12/05 08:11:40;;;;;;;34.00;25.50;;;-1.50;99.90;;;;;;5053958;28;20574;-61
2023/12/05 08:14:07;;;;;;;33.17;24.30;;;-1.50;99.90;;;;;;5050725;28;20571;-54
2023/12/05 08:16:33;;;;;;;36.37;25.80;;;-1.60;99.90;;;;;;5056492;28;20452;-54
2023/12/05 08:19:00;;;;;;;33.90;24.73;;;-1.60;99.90;;;;;;5054550;28;20543;-53
2023/12/05 08:21:27;;;;;;;37.73;25.87;;;-1.60;99.90;;;;;;5052369;28;20532;-53
2023/12/05 08:23:53;;;;;;;37.63;26.20;;;-1.50;99.90;;;;;;5055285;28;20489;-55
2023/12/05 08:26:21;;;;;;;36.13;25.20;;;-1.50;99.90;;;;;;5053827;28;20534;-54
2023/12/05 08:28:48;;;;;;;40.27;26.50;;;-1.40;99.90;;;;;;5052318;28;20492;-54
2023/12/05 08:31:14;;;;;;;37.23;26.50;;;-1.40;99.90;;;;;;5049074;28;20490;-55
2023/12/05 08:33:41;;;;;;;35.83;26.27;;;-1.50;99.90;;;;;;5050918;28;20848;-53
2023/12/05 08:36:08;;;;;;;44.47;28.57;;;-1.40;99.90;;;;;;5063448;28;20890;-54
2023/12/05 08:38:36;;;;;;;39.53;26.40;;;-1.30;99.90;;;;;;5053573;28;20842;-53
2023/12/05 08:41:03;;;;;;;61.33;33.73;;;-1.30;99.90;;;;;;5062140;28;20490;-53
2023/12/05 08:43:31;;;;;;;66.47;36.43;;;-1.30;99.90;;;;;;5064650;28;21095;-54
2023/12/05 08:45:58;;;;;;;52.03;32.27;;;-1.30;99.90;;;;;;5044813;28;20551;-54
2023/12/05 08:48:25;;;;;;;48.30;31.70;;;-1.30;99.90;;;;;;5059222;28;20466;-54
2023/12/05 08:50:52;;;;;;;42.80;27.47;;;-1.20;99.90;;;;;;5062704;28;20869;-54
2023/12/05 08:53:18;;;;;;;41.07;27.20;;;-1.20;99.90;;;;;;5061393;28;20503;-52
2023/12/05 08:55:45;;;;;;;36.73;25.70;;;-1.20;99.90;;;;;;5053692;28;20481;-55
2023/12/05 08:58:12;;;;;;;36.93;25.00;;;-1.10;99.90;;;;;;5058659;28;20889;-53
2023/12/05 09:00:39;;;;;;;43.40;26.10;;;-1.20;99.90;;;;;;5054487;28;20460;-54
2023/12/05 09:03:06;;;;;;;35.60;24.27;;;-1.20;99.90;;;;;;5052792;28;20478;-54
2023/12/05 09:05:33;;;;;;;36.27;27.47;;;-1.30;99.90;;;;;;5053115;28;20519;-54
2023/12/05 09:08:00;;;;;;;36.30;25.67;;;-1.20;99.90;;;;;;5051709;28;20519;-54
2023/12/05 09:10:26;;;;;;;42.77;28.47;;;-1.10;99.90;;;;;;5052289;28;20460;-54
2023/12/05 09:12:54;;;;;;;36.83;27.23;;;-1.10;99.90;;;;;;5061871;28;20987;-54
2023/12/05 09:15:20;;;;;;;36.57;24.97;;;-1.00;99.90;;;;;;5053654;28;20489;-55
2023/12/05 09:17:48;;;;;;;36.00;26.30;;;-1.00;99.90;;;;;;5053536;28;21122;-55
2023/12/05 09:20:15;;;;;;;36.30;24.97;;;-1.00;99.90;;;;;;5062725;28;20519;-53
2023/12/05 09:22:42;;;;;;;40.17;27.27;;;-0.90;99.90;;;;;;5055576;28;20551;-57
2023/12/05 09:25:09;;;;;;;37.53;26.40;;;-0.80;99.90;;;;;;5061372;28;21097;-54
2023/12/05 09:27:36;;;;;;;33.00;23.73;;;-0.80;99.90;;;;;;5056442;28;20493;-54
2023/12/05 09:30:03;;;;;;;36.47;25.87;;;-0.80;99.90;;;;;;5057185;28;20462;-54
2023/12/05 09:32:29;;;;;;;34.73;25.10;;;-0.90;99.90;;;;;;5055945;28;20457;-54
2023/12/05 09:34:57;;;;;;;44.70;30.27;;;-0.70;99.90;;;;;;5054509;28;20485;-54
2023/12/05 09:37:24;;;;;;;33.37;24.80;;;-0.60;99.90;;;;;;5055503;28;20874;-54
2023/12/05 09:39:50;;;;;;;34.20;25.70;;;-0.70;99.90;;;;;;5054691;28;20461;-54
2023/12/05 09:42:19;;;;;;;34.33;24.63;;;-0.60;99.90;;;;;;5053289;28;20458;-55
2023/12/05 09:44:50;;;;;;;36.10;25.90;;;-0.50;99.90;;;;;;5054716;28;20552;-53
2023/12/05 09:47:20;;;;;;;35.27;24.43;;;-0.50;99.90;;;;;;5056434;28;20848;-53
2023/12/05 09:49:48;;;;;;;34.43;25.07;;;-0.50;99.90;;;;;;5055090;28;21042;-53
2023/12/05 09:52:16;;;;;;;34.27;24.77;;;-0.60;99.90;;;;;;5053664;28;20523;-54
2023/12/05 09:54:43;;;;;;;31.77;24.57;;;-0.50;99.90;;;;;;5059475;28;20505;-54
2023/12/05 09:57:11;;;;;;;33.47;25.43;;;-0.40;99.90;;;;;;5059379;28;21024;-54
2023/12/05 09:59:38;;;;;;;39.33;26.17;;;-0.60;82.40;;;;;;5058844;28;20458;-54
2023/12/05 10:02:07;;;;;;;31.53;23.83;;;-0.60;99.90;;;;;;5059392;28;20940;-54
2023/12/05 10:04:41;;;;;;;33.70;24.70;;;-0.60;75.20;;;;;;5057646;28;20543;-54
2023/12/05 10:07:09;;;;;;;37.33;25.50;;;-0.60;99.90;;;;;;5053190;28;21044;-54
2023/12/05 10:09:38;;;;;;;34.03;24.03;;;-0.60;99.90;;;;;;5060892;28;20530;-54
2023/12/05 10:12:06;;;;;;;35.90;25.43;;;-0.50;99.90;;;;;;5058634;28;20457;-55
2023/12/05 10:14:33;;;;;;;34.40;24.13;;;-0.50;99.90;;;;;;5056774;28;20484;-54
2023/12/05 10:17:00;;;;;;;37.50;26.13;;;-0.60;99.90;;;;;;5054312;28;20571;-54
2023/12/05 10:19:27;;;;;;;31.80;24.03;;;-0.50;99.90;;;;;;5059507;28;20457;-54
2023/12/05 10:21:55;;;;;;;32.67;24.43;;;-0.50;99.90;;;;;;5056481;28;20469;-54
2023/12/05 10:24:22;;;;;;;34.00;25.10;;;-0.60;99.90;;;;;;5056304;28;20481;-53
2023/12/05 10:26:50;;;;;;;36.40;26.80;;;-0.50;99.90;;;;;;5053859;28;20493;-54
2023/12/05 10:29:17;;;;;;;32.07;24.40;;;-0.50;99.90;;;;;;5055819;28;20875;-53
2023/12/05 10:31:44;;;;;;;36.27;25.63;;;-0.40;99.90;;;;;;5061985;28;20453;-54
2023/12/05 10:34:11;;;;;;;36.53;25.70;;;-0.40;99.90;;;;;;5051137;28;20489;-54
2023/12/05 10:36:37;;;;;;;31.37;23.23;;;-0.50;99.90;;;;;;5050656;28;20454;-55
2023/12/05 10:39:05;;;;;;;35.10;24.10;;;-0.30;99.90;;;;;;5056498;28;20461;-52
2023/12/05 10:41:31;;;;;;;32.70;25.10;;;-0.20;99.90;;;;;;5061913;28;20445;-53
2023/12/05 10:44:01;;;;;;;33.00;24.33;;;-0.30;99.90;;;;;;5054290;28;20509;-54
2023/12/05 10:46:28;;;;;;;31.90;23.13;;;-0.30;99.90;;;;;;5057507;28;20513;-54
2023/12/05 10:48:55;;;;;;;33.73;22.97;;;-0.20;99.90;;;;;;5055017;28;20524;-53
2023/12/05 10:51:25;;;;;;;33.63;24.60;;;-0.30;76.60;;;;;;5047327;28;20537;-54
2023/12/05 10:53:53;;;;;;;32.60;24.50;;;-0.40;99.90;;;;;;5052335;28;21086;-53
2023/12/05 10:56:20;;;;;;;37.30;24.80;;;-0.30;99.90;;;;;;5058083;28;20482;-54
2023/12/05 10:58:48;;;;;;;35.50;26.27;;;-0.40;99.90;;;;;;5057188;28;20936;-54
2023/12/05 11:01:17;;;;;;;37.87;26.60;;;-0.30;99.90;;;;;;5056104;28;20454;-54
2023/12/05 11:03:44;;;;;;;44.30;30.50;;;-0.30;99.90;;;;;;5056697;28;20482;-55
2023/12/05 11:06:11;;;;;;;33.23;23.60;;;-0.30;99.90;;;;;;5055323;28;20520;-54
2023/12/05 11:08:38;;;;;;;36.40;24.07;;;-0.30;99.90;;;;;;5053878;28;21367;-54
2023/12/05 11:11:06;;;;;;;34.40;24.80;;;-0.30;99.90;;;;;;5051140;28;20480;-55
2023/12/05 11:13:34;;;;;;;38.10;27.10;;;-0.50;99.90;;;;;;5053230;28;20540;-54
2023/12/05 11:16:08;;;;;;;32.57;23.90;;;-0.30;99.90;;;;;;5059112;28;20449;-54
2023/12/05 11:18:39;;;;;;;34.27;25.23;;;-0.30;99.90;;;;;;5052756;28;20468;-54
2023/12/05 11:21:21;;;;;;;30.50;22.10;;;-0.30;99.90;;;;;;5052797;28;20511;-55
2023/12/05 11:24:04;;;;;;;34.40;24.67;;;-0.10;99.90;;;;;;5054304;28;20481;-55
2023/12/05 11:26:49;;;;;;;33.67;24.83;;;0.00;99.90;;;;;;5052510;28;21096;-54
2023/12/05 11:29:30;;;;;;;33.93;23.60;;;0.00;99.90;;;;;;5057698;28;20468;-54
2023/12/05 11:32:03;;;;;;;33.93;23.00;;;-0.10;78.80;;;;;;5059265;28;21047;-55
2023/12/05 11:34:48;;;;;;;36.70;23.20;;;0.00;99.90;;;;;;5057238;28;21013;-55
2023/12/05 11:37:27;;;;;;;32.07;24.07;;;0.00;21.60;;;;;;5054896;28;20863;-54
2023/12/05 11:39:54;;;;;;;31.90;22.43;;;0.10;99.50;;;;;;5050054;28;20855;-53
2023/12/05 11:42:20;;;;;;;26.93;21.83;;;0.20;80.20;;;;;;5057839;28;20886;-54
2023/12/05 11:44:47;;;;;;;27.97;23.87;;;0.10;26.50;;;;;;5048745;28;20509;-53
2023/12/05 11:47:15;;;;;;;30.83;21.87;;;0.20;91.20;;;;;;5055322;28;20903;-54
2023/12/05 11:49:50;;;;;;;30.53;22.30;;;0.00;22.80;;;;;;5060852;28;20460;-54
2023/12/05 11:52:19;;;;;;;27.40;22.23;;;0.20;73.30;;;;;;5057269;28;20453;-54
2023/12/05 11:54:48;;;;;;;31.70;23.50;;;-0.10;20.50;;;;;;5056964;28;20986;-54
2023/12/05 11:57:16;;;;;;;32.20;23.47;;;0.10;99.90;;;;;;5056697;28;20826;-53
2023/12/05 11:59:44;;;;;;;28.20;21.60;;;0.10;83.30;;;;;;5060405;28;20461;-54
2023/12/05 12:02:13;;;;;;;28.73;21.00;;;0.10;96.50;;;;;;5049954;28;20454;-54
2023/12/05 12:04:40;;;;;;;29.37;21.97;;;0.10;99.90;;;;;;5050853;28;20486;-56
2023/12/05 12:07:08;;;;;;;28.47;21.93;;;-0.10;99.90;;;;;;5059222;28;20543;-54
2023/12/05 12:09:39;;;;;;;30.40;21.37;;;-0.10;99.90;;;;;;5061013;28;20458;-54
2023/12/05 12:12:07;;;;;;;28.80;21.57;;;-0.10;99.90;;;;;;5065294;28;20456;-54
2023/12/05 12:14:33;;;;;;;29.30;22.80;;;-0.10;99.90;;;;;;5059150;28;20568;-54
2023/12/05 12:17:00;;;;;;;30.67;22.60;;;-0.10;99.90;;;;;;5064117;28;20887;-54
2023/12/05 12:19:27;;;;;;;36.57;26.17;;;-0.10;99.90;;;;;;5059395;28;20478;-54
2023/12/05 12:21:54;;;;;;;39.33;27.57;;;-0.10;99.90;;;;;;5062219;28;20492;-54
2023/12/05 12:24:23;;;;;;;32.13;24.60;;;-0.30;99.90;;;;;;5059993;28;20481;-54
2023/12/05 12:26:54;;;;;;;31.90;23.33;;;-0.20;99.90;;;;;;5061930;28;20554;-55
2023/12/05 12:29:21;;;;;;;34.80;25.47;;;-0.10;99.90;;;;;;5055947;28;20456;-55
2023/12/05 12:31:48;;;;;;;30.33;22.67;;;-0.20;99.90;;;;;;5063003;28;20938;-54